Flight Track Log - Related Links

Times and Time Zones

All times are in EDT time to prevent confusion due to time zone crossing. See the KAP927 flight status page for this flight to view local times or setup timezone preferences in your user account.

Time Position Orientation Groundspeed Altitude Reporting Facility
EDT Latitude Longitude Course Direction KTS MPH feet Rate Location/Type
Thu 08:34:49 AM 42.7558 -73.7097 82° East 136 157 1,900  Level Boston Center
Thu 08:35:50 AM 42.7606 -73.6589 83° East 136 157 2,600 661 Climbing Boston Center
Thu 08:36:56 AM 42.7633 -73.5994 86° East 140 161 3,300 661 Climbing Boston Center
Thu 08:37:57 AM 42.7681 -73.5458 83° East 145 167 4,000 645 Climbing Boston Center
Thu 08:38:57 AM 42.7728 -73.4922 83° East 143 165 4,600 545 Climbing Boston Center
Thu 08:39:58 AM 42.7753 -73.4358 87° East 145 167 5,100 541 Climbing Boston Center
Thu 08:40:59 AM 42.7800 -73.3792 84° East 150 173 5,700 595 Climbing Boston Center
Thu 08:41:59 AM 42.7742 -73.3197 98° East 153 176 6,300 513 Climbing Boston Center
Thu 08:42:56 AM 42.7642 -73.2686 105° East 158 182 6,700 359 Climbing Boston Center
Thu 08:43:56 AM 42.7519 -73.2147 107° East 165 190 7,000 150 Climbing Boston Center
Thu 08:44:56 AM 42.7381 -73.1383 104° East 165 190 7,000  Level Boston Center
Thu 08:45:56 AM 42.7300 -73.0761 100° East 181 208 7,000  Level Boston Center
Thu 08:46:56 AM 42.7158 -73.0053 105° East 181 208 7,000  Level Boston Center
Thu 08:47:56 AM 42.7056 -72.9344 101° East 181 208 7,000  Level Boston Center
Thu 08:48:56 AM 42.6933 -72.8694 104° East 181 208 7,000  Level Boston Center
Thu 08:49:56 AM 42.6833 -72.8017 101° East 181 208 7,000  Level Boston Center
Thu 08:50:56 AM 42.6689 -72.7339 106° East 181 208 7,000  Level Boston Center
Thu 08:51:56 AM 42.6564 -72.6658 104° East 181 208 7,000  Level Boston Center
Thu 08:52:56 AM 42.6442 -72.5981 104° East 181 208 7,000  Level Boston Center
Thu 08:53:56 AM 42.6317 -72.5303 104° East 181 208 7,000  Level Boston Center
Thu 08:54:56 AM 42.6233 -72.4739 101° East 181 208 7,000  Level Boston Center
Thu 08:55:56 AM 42.6089 -72.3978 104° East 181 208 7,000  Level Boston Center
Thu 08:56:56 AM 42.5964 -72.3300 104° East 181 208 7,000  Level Boston Center
Thu 08:57:56 AM 42.5836 -72.2597 104° East 181 208 7,000  Level Boston Center
Thu 08:58:56 AM 42.5711 -72.1892 104° East 181 208 7,000  Level Boston Center
Thu 08:59:56 AM 42.5583 -72.1244 105° East 181 208 7,000  Level Boston Center
Thu 09:00:56 AM 42.5456 -72.0569 104° East 181 208 7,000  Level Boston Center
Thu 09:01:56 AM 42.5392 -71.9919 98° East 186 214 7,000  Level Boston Center
Thu 09:02:56 AM 42.5325 -71.9189 97° East 181 208 7,000  Level Boston Center
Thu 09:03:56 AM 42.5261 -71.8542 98° East 181 208 7,000  Level Boston Center
Thu 09:04:56 AM 42.5214 -71.7781 95° East 181 208 7,000  Level Boston Center
Thu 09:05:56 AM 42.5147 -71.7161 98° East 181 208 7,000  Level Boston Center
Thu 09:06:56 AM 42.5081 -71.6403 97° East 181 208 7,000  Level Boston Center
Thu 09:07:49 AM 42.5000 -71.5667 98° East 189 217 7,000 -265 Level KA90
Thu 09:08:49 AM 42.5000 -71.5000 90° East 201 231 6,500 -381 Descending KA90
Thu 09:09:55 AM 42.5167 -71.4167 75° East 199 229 6,200 -450 Descending KA90
Thu 09:10:49 AM 42.5167 -71.3500 90° East 205 236 5,600 -611 Descending KA90
Thu 09:11:43 AM 42.5167 -71.2833 90° East 204 235 5,100 -579 Descending KA90
Thu 09:12:43 AM 42.5167 -71.2000 90° East 200 230 4,500 -526 Descending KA90
Thu 09:13:37 AM 42.5333 -71.1333 71° East 197 227 4,100 -368 Descending KA90
Thu 09:14:37 AM 42.5333 -71.0667 90° East 182 209 3,800 -650 Descending KA90
Thu 09:15:37 AM 42.5000 -71.0167 132° Southeast 185 213 2,800 -952 Descending KA90
Thu 09:16:43 AM 42.4500 -70.9667 144° Southeast 188 216 1,800 -1,000 Descending KA90
Thu 09:17:55 AM 42.4000 -70.9833 194° South 153 176 500 -1,083 Descending KA90
Thu 09:19:00 AM 42.3595 -70.9833 180° South  Level FlightAware Approximate
Thu 09:26:00 AM 42.3500 -71.0000 270° West  Level FlightAware Approximate

Login

Don't have an account? Register now (free) for customized features, flight alerts, and more!